sensor_id;sensor_type;location;lat;lon;timestamp;temperature;humidity
1123;DHT22;548;48.778;9.252;2022-11-20T00:18:22;6.30;99.90
1123;DHT22;548;48.778;9.252;2022-11-20T00:20:49;6.40;99.90
1123;DHT22;548;48.778;9.252;2022-11-20T00:23:15;6.40;99.90
1123;DHT22;548;48.778;9.252;2022-11-20T00:25:42;6.40;99.90
1123;DHT22;548;48.778;9.252;2022-11-20T00:28:11;6.30;99.90
1123;DHT22;548;48.778;9.252;2022-11-20T00:30:38;6.20;99.90
1123;DHT22;548;48.778;9.252;2022-11-20T00:33:05;6.30;99.90
1123;DHT22;548;48.778;9.252;2022-11-20T00:35:33;6.40;99.90
1123;DHT22;548;48.778;9.252;2022-11-20T00:38:00;6.50;99.90
1123;DHT22;548;48.778;9.252;2022-11-20T00:40:27;6.60;99.90
1123;DHT22;548;48.778;9.252;2022-11-20T00:42:53;6.60;99.90
1123;DHT22;548;48.778;9.252;2022-11-20T00:45:20;6.80;99.90
1123;DHT22;548;48.778;9.252;2022-11-20T00:47:47;6.80;99.90
1123;DHT22;548;48.778;9.252;2022-11-20T00:50:14;6.80;99.90
1123;DHT22;548;48.778;9.252;2022-11-20T00:52:42;6.70;99.90
1123;DHT22;548;48.778;9.252;2022-11-20T00:55:09;6.80;99.90
1123;DHT22;548;48.778;9.252;2022-11-20T00:57:36;6.80;99.90
1123;DHT22;548;48.778;9.252;2022-11-20T01:00:08;6.80;99.90
1123;DHT22;548;48.778;9.252;2022-11-20T01:02:35;6.80;99.90
1123;DHT22;548;48.778;9.252;2022-11-20T01:05:02;6.80;99.90
1123;DHT22;548;48.778;9.252;2022-11-20T01:07:32;6.80;99.90
1123;DHT22;548;48.778;9.252;2022-11-20T01:10:15;6.80;99.90
1123;DHT22;548;48.778;9.252;2022-11-20T01:12:42;6.80;99.90
1123;DHT22;548;48.778;9.252;2022-11-20T01:15:29;6.90;99.90
1123;DHT22;548;48.778;9.252;2022-11-20T01:17:56;6.80;99.90
1123;DHT22;548;48.778;9.252;2022-11-20T01:20:23;6.90;99.90
1123;DHT22;548;48.778;9.252;2022-11-20T01:22:49;6.90;99.90
1123;DHT22;548;48.778;9.252;2022-11-20T01:25:17;6.90;99.90
1123;DHT22;548;48.778;9.252;2022-11-20T01:27:44;7.00;99.90
1123;DHT22;548;48.778;9.252;2022-11-20T01:30:12;7.00;99.90
1123;DHT22;548;48.778;9.252;2022-11-20T01:32:39;7.00;99.90
1123;DHT22;548;48.778;9.252;2022-11-20T01:35:06;7.00;99.90
1123;DHT22;548;48.778;9.252;2022-11-20T01:37:35;7.10;99.90
1123;DHT22;548;48.778;9.252;2022-11-20T01:40:02;7.10;99.90
1123;DHT22;548;48.778;9.252;2022-11-20T01:42:31;7.10;99.90
1123;DHT22;548;48.778;9.252;2022-11-20T01:45:51;7.10;99.90
1123;DHT22;548;48.778;9.252;2022-11-20T01:48:23;7.10;99.90
1123;DHT22;548;48.778;9.252;2022-11-20T01:50:51;7.10;99.90
1123;DHT22;548;48.778;9.252;2022-11-20T01:53:21;7.10;99.90
1123;DHT22;548;48.778;9.252;2022-11-20T01:55:51;7.10;99.90
1123;DHT22;548;48.778;9.252;2022-11-20T01:58:22;7.10;99.90
1123;DHT22;548;48.778;9.252;2022-11-20T02:00:52;7.10;99.90
1123;DHT22;548;48.778;9.252;2022-11-20T02:03:20;7.00;99.90
1123;DHT22;548;48.778;9.252;2022-11-20T02:05:50;7.00;99.90
1123;DHT22;548;48.778;9.252;2022-11-20T02:08:17;6.90;99.90
1123;DHT22;548;48.778;9.252;2022-11-20T02:10:45;7.00;99.90
1123;DHT22;548;48.778;9.252;2022-11-20T02:13:12;7.00;99.90
1123;DHT22;548;48.778;9.252;2022-11-20T02:15:57;7.00;99.90
1123;DHT22;548;48.778;9.252;2022-11-20T02:18:24;7.00;99.90
1123;DHT22;548;48.778;9.252;2022-11-20T02:20:57;7.10;99.90
1123;DHT22;548;48.778;9.252;2022-11-20T02:23:28;7.10;99.90
1123;DHT22;548;48.778;9.252;2022-11-20T02:26:01;7.10;99.90
1123;DHT22;548;48.778;9.252;2022-11-20T02:28:28;7.20;99.90
1123;DHT22;548;48.778;9.252;2022-11-20T02:30:55;7.10;99.90
1123;DHT22;548;48.778;9.252;2022-11-20T02:33:22;7.10;99.90
1123;DHT22;548;48.778;9.252;2022-11-20T02:35:49;7.10;99.90
1123;DHT22;548;48.778;9.252;2022-11-20T02:38:16;7.10;99.90
1123;DHT22;548;48.778;9.252;2022-11-20T02:40:42;7.10;99.90
1123;DHT22;548;48.778;9.252;2022-11-20T02:43:11;7.10;99.90
1123;DHT22;548;48.778;9.252;2022-11-20T02:45:37;7.10;99.90
1123;DHT22;548;48.778;9.252;2022-11-20T02:48:06;7.00;99.90
1123;DHT22;548;48.778;9.252;2022-11-20T02:50:33;7.00;99.90
1123;DHT22;548;48.778;9.252;2022-11-20T02:52:59;7.00;99.90
1123;DHT22;548;48.778;9.252;2022-11-20T02:55:26;7.00;99.90
1123;DHT22;548;48.778;9.252;2022-11-20T02:57:53;7.00;99.90
1123;DHT22;548;48.778;9.252;2022-11-20T03:00:21;7.10;99.90
1123;DHT22;548;48.778;9.252;2022-11-20T03:02:48;7.10;99.90
1123;DHT22;548;48.778;9.252;2022-11-20T03:05:15;7.10;99.90
1123;DHT22;548;48.778;9.252;2022-11-20T03:07:43;7.20;99.90
1123;DHT22;548;48.778;9.252;2022-11-20T03:10:09;7.20;99.90
1123;DHT22;548;48.778;9.252;2022-11-20T03:12:36;7.20;99.90
1123;DHT22;548;48.778;9.252;2022-11-20T03:15:04;7.20;99.90
1123;DHT22;548;48.778;9.252;2022-11-20T03:17:32;7.30;99.90
1123;DHT22;548;48.778;9.252;2022-11-20T03:19:59;7.20;99.90
1123;DHT22;548;48.778;9.252;2022-11-20T03:22:25;7.20;99.90
1123;DHT22;548;48.778;9.252;2022-11-20T03:24:54;7.30;99.90
1123;DHT22;548;48.778;9.252;2022-11-20T03:27:21;7.30;99.90
1123;DHT22;548;48.778;9.252;2022-11-20T03:29:48;7.30;99.90
1123;DHT22;548;48.778;9.252;2022-11-20T03:32:14;7.30;99.90
1123;DHT22;548;48.778;9.252;2022-11-20T03:34:43;7.20;99.90
1123;DHT22;548;48.778;9.252;2022-11-20T03:37:09;7.20;99.90
1123;DHT22;548;48.778;9.252;2022-11-20T03:39:36;7.30;99.90
1123;DHT22;548;48.778;9.252;2022-11-20T03:42:03;7.10;99.90
1123;DHT22;548;48.778;9.252;2022-11-20T03:44:50;7.10;99.90
1123;DHT22;548;48.778;9.252;2022-11-20T03:47:16;7.10;99.90
1123;DHT22;548;48.778;9.252;2022-11-20T05:25:41;7.10;99.90
1123;DHT22;548;48.778;9.252;2022-11-20T05:28:08;7.20;99.90
1123;DHT22;548;48.778;9.252;2022-11-20T05:30:35;7.10;99.90
1123;DHT22;548;48.778;9.252;2022-11-20T05:33:01;7.10;99.90
1123;DHT22;548;48.778;9.252;2022-11-20T05:35:28;7.10;99.90
1123;DHT22;548;48.778;9.252;2022-11-20T05:37:55;7.10;99.90
1123;DHT22;548;48.778;9.252;2022-11-20T05:40:22;7.10;99.90
1123;DHT22;548;48.778;9.252;2022-11-20T05:42:50;7.10;99.90
1123;DHT22;548;48.778;9.252;2022-11-20T05:45:16;7.10;99.90
1123;DHT22;548;48.778;9.252;2022-11-20T05:47:52;7.10;99.90
1123;DHT22;548;48.778;9.252;2022-11-20T06:15:23;7.30;99.90
1123;DHT22;548;48.778;9.252;2022-11-20T06:17:52;7.30;99.90
1123;DHT22;548;48.778;9.252;2022-11-20T06:20:19;7.30;99.90
1123;DHT22;548;48.778;9.252;2022-11-20T06:22:46;7.30;99.90
1123;DHT22;548;48.778;9.252;2022-11-20T06:25:13;7.30;99.90
1123;DHT22;548;48.778;9.252;2022-11-20T06:27:40;7.30;99.90
1123;DHT22;548;48.778;9.252;2022-11-20T06:30:08;7.40;99.90
1123;DHT22;548;48.778;9.252;2022-11-20T06:32:36;7.40;99.90
1123;DHT22;548;48.778;9.252;2022-11-20T06:35:04;7.40;99.90
1123;DHT22;548;48.778;9.252;2022-11-20T06:37:31;7.40;99.90
1123;DHT22;548;48.778;9.252;2022-11-20T06:39:57;7.30;99.90
1123;DHT22;548;48.778;9.252;2022-11-20T06:42:24;7.40;99.90
1123;DHT22;548;48.778;9.252;2022-11-20T06:44:51;7.40;99.90
1123;DHT22;548;48.778;9.252;2022-11-20T06:47:17;7.40;99.90
1123;DHT22;548;48.778;9.252;2022-11-20T06:49:45;7.30;99.90
1123;DHT22;548;48.778;9.252;2022-11-20T06:52:12;7.30;99.90
1123;DHT22;548;48.778;9.252;2022-11-20T06:54:39;7.30;99.90
1123;DHT22;548;48.778;9.252;2022-11-20T06:57:06;7.30;99.90
1123;DHT22;548;48.778;9.252;2022-11-20T07:17:36;7.30;99.90
1123;DHT22;548;48.778;9.252;2022-11-20T07:20:49;7.30;99.90
1123;DHT22;548;48.778;9.252;2022-11-20T07:26:20;7.50;99.90
1123;DHT22;548;48.778;9.252;2022-11-20T07:28:56;7.50;99.90
1123;DHT22;548;48.778;9.252;2022-11-20T07:31:24;7.50;99.90
1123;DHT22;548;48.778;9.252;2022-11-20T07:33:51;7.50;99.90
1123;DHT22;548;48.778;9.252;2022-11-20T07:36:17;7.50;99.90
1123;DHT22;548;48.778;9.252;2022-11-20T07:38:44;7.60;99.90
1123;DHT22;548;48.778;9.252;2022-11-20T07:41:11;7.60;99.90
1123;DHT22;548;48.778;9.252;2022-11-20T07:43:38;7.60;99.90
1123;DHT22;548;48.778;9.252;2022-11-20T07:46:05;7.60;99.90
1123;DHT22;548;48.778;9.252;2022-11-20T07:48:35;7.70;99.90
1123;DHT22;548;48.778;9.252;2022-11-20T07:51:02;7.80;99.90
1123;DHT22;548;48.778;9.252;2022-11-20T07:53:29;7.80;99.90
1123;DHT22;548;48.778;9.252;2022-11-20T07:56:01;7.90;99.90
1123;DHT22;548;48.778;9.252;2022-11-20T07:58:29;8.00;99.90
1123;DHT22;548;48.778;9.252;2022-11-20T08:00:58;8.10;99.90
1123;DHT22;548;48.778;9.252;2022-11-20T08:03:28;8.20;99.90
1123;DHT22;548;48.778;9.252;2022-11-20T08:05:58;8.30;99.90
1123;DHT22;548;48.778;9.252;2022-11-20T08:08:25;8.30;99.90
1123;DHT22;548;48.778;9.252;2022-11-20T08:10:52;8.30;99.90
1123;DHT22;548;48.778;9.252;2022-11-20T08:13:38;8.20;99.90
1123;DHT22;548;48.778;9.252;2022-11-20T08:16:23;8.30;99.90
1123;DHT22;548;48.778;9.252;2022-11-20T08:18:49;8.40;99.90
1123;DHT22;548;48.778;9.252;2022-11-20T08:21:18;8.50;99.90
1123;DHT22;548;48.778;9.252;2022-11-20T08:23:44;8.60;99.90
1123;DHT22;548;48.778;9.252;2022-11-20T08:26:11;8.60;99.90
1123;DHT22;548;48.778;9.252;2022-11-20T08:28:38;8.50;99.90
1123;DHT22;548;48.778;9.252;2022-11-20T08:31:05;8.40;99.90
1123;DHT22;548;48.778;9.252;2022-11-20T08:33:31;8.50;99.90
1123;DHT22;548;48.778;9.252;2022-11-20T08:35:59;8.60;99.90
1123;DHT22;548;48.778;9.252;2022-11-20T08:38:28;8.60;99.90
1123;DHT22;548;48.778;9.252;2022-11-20T08:40:56;8.50;99.90
1123;DHT22;548;48.778;9.252;2022-11-20T08:43:41;8.50;99.90
1123;DHT22;548;48.778;9.252;2022-11-20T08:46:08;8.70;99.90
1123;DHT22;548;48.778;9.252;2022-11-20T08:48:34;8.70;99.90
1123;DHT22;548;48.778;9.252;2022-11-20T08:51:01;8.70;99.90
1123;DHT22;548;48.778;9.252;2022-11-20T08:53:30;8.70;99.90
1123;DHT22;548;48.778;9.252;2022-11-20T08:55:57;8.90;99.90
1123;DHT22;548;48.778;9.252;2022-11-20T08:58:24;9.00;99.90
1123;DHT22;548;48.778;9.252;2022-11-20T09:00:51;9.10;99.90
1123;DHT22;548;48.778;9.252;2022-11-20T09:03:18;9.30;99.90
1123;DHT22;548;48.778;9.252;2022-11-20T09:05:45;9.50;99.90
1123;DHT22;548;48.778;9.252;2022-11-20T09:08:11;9.70;99.90
1123;DHT22;548;48.778;9.252;2022-11-20T09:10:40;9.80;99.90
1123;DHT22;548;48.778;9.252;2022-11-20T09:13:06;10.00;99.90
1123;DHT22;548;48.778;9.252;2022-11-20T09:15:33;10.00;99.90
1123;DHT22;548;48.778;9.252;2022-11-20T09:18:01;10.00;99.90
1123;DHT22;548;48.778;9.252;2022-11-20T09:20:29;10.20;99.90
1123;DHT22;548;48.778;9.252;2022-11-20T09:22:56;10.20;99.90
1123;DHT22;548;48.778;9.252;2022-11-20T09:25:23;10.40;99.90
1123;DHT22;548;48.778;9.252;2022-11-20T09:27:56;10.40;99.90
1123;DHT22;548;48.778;9.252;2022-11-20T09:30:23;10.40;99.90
1123;DHT22;548;48.778;9.252;2022-11-20T09:32:50;10.30;99.90
1123;DHT22;548;48.778;9.252;2022-11-20T09:35:17;10.20;99.90
1123;DHT22;548;48.778;9.252;2022-11-20T09:37:44;9.90;99.90
1123;DHT22;548;48.778;9.252;2022-11-20T09:40:19;10.00;99.90
1123;DHT22;548;48.778;9.252;2022-11-20T09:42:54;10.20;99.90
1123;DHT22;548;48.778;9.252;2022-11-20T09:45:36;10.20;99.90
1123;DHT22;548;48.778;9.252;2022-11-20T09:48:18;10.30;99.90
1123;DHT22;548;48.778;9.252;2022-11-20T09:50:52;10.30;99.90
1123;DHT22;548;48.778;9.252;2022-11-20T09:53:29;10.20;99.90
1123;DHT22;548;48.778;9.252;2022-11-20T09:55:59;10.10;99.90
1123;DHT22;548;48.778;9.252;2022-11-20T09:58:30;10.00;99.90
1123;DHT22;548;48.778;9.252;2022-11-20T10:01:06;10.10;99.90
1123;DHT22;548;48.778;9.252;2022-11-20T10:03:41;10.10;99.90
1123;DHT22;548;48.778;9.252;2022-11-20T10:06:13;10.00;99.90
1123;DHT22;548;48.778;9.252;2022-11-20T10:08:44;10.20;99.90
1123;DHT22;548;48.778;9.252;2022-11-20T10:11:17;10.20;99.90
1123;DHT22;548;48.778;9.252;2022-11-20T10:13:54;10.20;99.90
1123;DHT22;548;48.778;9.252;2022-11-20T10:16:31;10.10;99.90
1123;DHT22;548;48.778;9.252;2022-11-20T10:19:09;10.10;99.90
1123;DHT22;548;48.778;9.252;2022-11-20T10:21:48;9.90;99.90
1123;DHT22;548;48.778;9.252;2022-11-20T10:24:31;9.90;99.90
1123;DHT22;548;48.778;9.252;2022-11-20T10:27:07;9.80;99.90
1123;DHT22;548;48.778;9.252;2022-11-20T10:29:39;9.80;99.90
1123;DHT22;548;48.778;9.252;2022-11-20T10:32:14;9.70;99.90
1123;DHT22;548;48.778;9.252;2022-11-20T10:34:46;9.70;99.90
1123;DHT22;548;48.778;9.252;2022-11-20T10:37:19;9.70;99.90
1123;DHT22;548;48.778;9.252;2022-11-20T10:39:50;9.50;99.90
1123;DHT22;548;48.778;9.252;2022-11-20T10:42:28;9.30;99.90
1123;DHT22;548;48.778;9.252;2022-11-20T10:45:09;9.00;99.90
1123;DHT22;548;48.778;9.252;2022-11-20T10:47:41;8.80;99.90
1123;DHT22;548;48.778;9.252;2022-11-20T10:50:11;8.90;99.90
1123;DHT22;548;48.778;9.252;2022-11-20T10:52:48;9.00;99.90
1123;DHT22;548;48.778;9.252;2022-11-20T10:55:27;9.10;99.90
1123;DHT22;548;48.778;9.252;2022-11-20T10:58:02;9.00;99.90
1123;DHT22;548;48.778;9.252;2022-11-20T11:03:52;8.90;99.90
1123;DHT22;548;48.778;9.252;2022-11-20T11:06:23;8.70;99.90
1123;DHT22;548;48.778;9.252;2022-11-20T11:09:15;8.70;99.90
1123;DHT22;548;48.778;9.252;2022-11-20T11:39:26;9.70;99.90
1123;DHT22;548;48.778;9.252;2022-11-20T11:41:54;11.00;99.90
1123;DHT22;548;48.778;9.252;2022-11-20T11:47:37;13.10;99.90
1123;DHT22;548;48.778;9.252;2022-11-20T11:54:18;14.80;99.90
1123;DHT22;548;48.778;9.252;2022-11-20T12:07:45;15.90;99.90
1123;DHT22;548;48.778;9.252;2022-11-20T12:11:53;16.10;99.90
1123;DHT22;548;48.778;9.252;2022-11-20T12:20:26;14.50;99.90
1123;DHT22;548;48.778;9.252;2022-11-20T12:24:06;14.40;99.90
1123;DHT22;548;48.778;9.252;2022-11-20T12:34:43;16.10;99.50
1123;DHT22;548;48.778;9.252;2022-11-20T12:37:36;17.20;98.00
1123;DHT22;548;48.778;9.252;2022-11-20T13:05:30;12.10;99.90
1123;DHT22;548;48.778;9.252;2022-11-20T13:08:25;11.90;99.90
1123;DHT22;548;48.778;9.252;2022-11-20T13:11:25;11.80;99.90
1123;DHT22;548;48.778;9.252;2022-11-20T13:14:39;11.60;99.90
1123;DHT22;548;48.778;9.252;2022-11-20T13:22:09;11.80;99.90
1123;DHT22;548;48.778;9.252;2022-11-20T14:05:21;10.80;99.90
1123;DHT22;548;48.778;9.252;2022-11-20T14:07:58;11.00;99.90
1123;DHT22;548;48.778;9.252;2022-11-20T14:39:57;9.70;99.90
1123;DHT22;548;48.778;9.252;2022-11-20T14:51:58;9.80;99.90
1123;DHT22;548;48.778;9.252;2022-11-20T16:50:21;8.30;99.90
1123;DHT22;548;48.778;9.252;2022-11-20T16:52:48;8.40;99.90
1123;DHT22;548;48.778;9.252;2022-11-20T16:55:14;8.30;99.90
1123;DHT22;548;48.778;9.252;2022-11-20T16:57:41;8.30;99.90
1123;DHT22;548;48.778;9.252;2022-11-20T17:00:09;8.30;99.90
1123;DHT22;548;48.778;9.252;2022-11-20T17:02:36;8.40;99.90
1123;DHT22;548;48.778;9.252;2022-11-20T17:05:03;8.40;99.90
1123;DHT22;548;48.778;9.252;2022-11-20T17:07:32;8.30;99.90
1123;DHT22;548;48.778;9.252;2022-11-20T17:09:59;8.30;99.90
1123;DHT22;548;48.778;9.252;2022-11-20T17:12:26;8.30;99.90
1123;DHT22;548;48.778;9.252;2022-11-20T17:14:52;8.30;99.90
1123;DHT22;548;48.778;9.252;2022-11-20T17:17:19;8.30;99.90
1123;DHT22;548;48.778;9.252;2022-11-20T17:19:46;8.30;99.90
1123;DHT22;548;48.778;9.252;2022-11-20T17:22:12;8.30;99.90
1123;DHT22;548;48.778;9.252;2022-11-20T17:24:41;8.30;99.90
1123;DHT22;548;48.778;9.252;2022-11-20T17:27:07;8.20;99.90
1123;DHT22;548;48.778;9.252;2022-11-20T17:29:35;8.20;99.90
1123;DHT22;548;48.778;9.252;2022-11-20T17:32:01;8.20;99.90
1123;DHT22;548;48.778;9.252;2022-11-20T17:34:28;8.20;99.90
1123;DHT22;548;48.778;9.252;2022-11-20T17:36:55;8.20;99.90
1123;DHT22;548;48.778;9.252;2022-11-20T17:39:22;8.20;99.90
1123;DHT22;548;48.778;9.252;2022-11-20T17:41:50;8.20;99.90
1123;DHT22;548;48.778;9.252;2022-11-20T17:44:31;8.20;99.90
1123;DHT22;548;48.778;9.252;2022-11-20T17:46:57;8.20;99.90
1123;DHT22;548;48.778;9.252;2022-11-20T17:49:24;8.20;99.90
1123;DHT22;548;48.778;9.252;2022-11-20T17:51:51;8.20;99.90
1123;DHT22;548;48.778;9.252;2022-11-20T17:54:18;8.20;99.90
1123;DHT22;548;48.778;9.252;2022-11-20T17:56:44;8.20;99.90
1123;DHT22;548;48.778;9.252;2022-11-20T17:59:30;8.20;99.90
1123;DHT22;548;48.778;9.252;2022-11-20T18:01:57;8.30;99.90
1123;DHT22;548;48.778;9.252;2022-11-20T18:04:24;8.30;99.90
1123;DHT22;548;48.778;9.252;2022-11-20T18:06:51;8.30;99.90
1123;DHT22;548;48.778;9.252;2022-11-20T18:09:17;8.30;99.90
1123;DHT22;548;48.778;9.252;2022-11-20T18:11:44;8.40;99.90
1123;DHT22;548;48.778;9.252;2022-11-20T18:14:13;8.40;99.90
1123;DHT22;548;48.778;9.252;2022-11-20T18:16:59;8.50;99.90
1123;DHT22;548;48.778;9.252;2022-11-20T18:19:28;8.50;99.90
1123;DHT22;548;48.778;9.252;2022-11-20T18:21:55;8.60;99.90
1123;DHT22;548;48.778;9.252;2022-11-20T18:24:22;8.50;99.90
1123;DHT22;548;48.778;9.252;2022-11-20T18:26:49;8.60;99.90
1123;DHT22;548;48.778;9.252;2022-11-20T18:29:16;8.60;99.90
1123;DHT22;548;48.778;9.252;2022-11-20T18:31:43;8.70;99.90
1123;DHT22;548;48.778;9.252;2022-11-20T18:34:11;8.60;99.90
1123;DHT22;548;48.778;9.252;2022-11-20T18:36:39;8.60;99.90
1123;DHT22;548;48.778;9.252;2022-11-20T18:39:11;8.50;99.90
1123;DHT22;548;48.778;9.252;2022-11-20T18:41:39;8.50;99.90
1123;DHT22;548;48.778;9.252;2022-11-20T18:44:25;8.50;99.90
1123;DHT22;548;48.778;9.252;2022-11-20T18:47:11;8.50;99.90
1123;DHT22;548;48.778;9.252;2022-11-20T18:49:42;8.50;99.90
1123;DHT22;548;48.778;9.252;2022-11-20T18:52:10;8.40;99.90
1123;DHT22;548;48.778;9.252;2022-11-20T18:54:37;8.30;99.90
1123;DHT22;548;48.778;9.252;2022-11-20T18:57:04;8.30;99.90
1123;DHT22;548;48.778;9.252;2022-11-20T18:59:31;8.20;99.90
1123;DHT22;548;48.778;9.252;2022-11-20T19:01:58;8.10;99.90
1123;DHT22;548;48.778;9.252;2022-11-20T19:04:24;8.10;99.90
1123;DHT22;548;48.778;9.252;2022-11-20T19:06:53;8.00;99.90
1123;DHT22;548;48.778;9.252;2022-11-20T19:09:21;7.70;99.90
1123;DHT22;548;48.778;9.252;2022-11-20T19:11:48;7.60;99.90
1123;DHT22;548;48.778;9.252;2022-11-20T19:14:15;7.50;99.90
1123;DHT22;548;48.778;9.252;2022-11-20T19:16:41;7.50;99.90
1123;DHT22;548;48.778;9.252;2022-11-20T19:19:08;7.40;99.90
1123;DHT22;548;48.778;9.252;2022-11-20T19:21:35;7.40;99.90
1123;DHT22;548;48.778;9.252;2022-11-20T19:24:04;7.30;99.90
1123;DHT22;548;48.778;9.252;2022-11-20T19:26:33;7.30;99.90
1123;DHT22;548;48.778;9.252;2022-11-20T19:29:00;7.20;99.90
1123;DHT22;548;48.778;9.252;2022-11-20T19:31:27;7.20;99.90
1123;DHT22;548;48.778;9.252;2022-11-20T19:33:54;7.20;99.90
1123;DHT22;548;48.778;9.252;2022-11-20T19:36:23;7.20;99.90
1123;DHT22;548;48.778;9.252;2022-11-20T19:38:51;7.20;99.90
1123;DHT22;548;48.778;9.252;2022-11-20T19:41:22;7.10;99.90
1123;DHT22;548;48.778;9.252;2022-11-20T19:43:54;7.20;99.90
1123;DHT22;548;48.778;9.252;2022-11-20T19:46:21;7.10;99.90
1123;DHT22;548;48.778;9.252;2022-11-20T19:48:48;7.10;99.90
1123;DHT22;548;48.778;9.252;2022-11-20T19:51:16;7.10;99.90
1123;DHT22;548;48.778;9.252;2022-11-20T19:53:43;7.10;99.90
1123;DHT22;548;48.778;9.252;2022-11-20T19:56:11;7.10;99.90
1123;DHT22;548;48.778;9.252;2022-11-20T19:58:39;7.10;99.90
1123;DHT22;548;48.778;9.252;2022-11-20T20:01:07;7.00;99.90
1123;DHT22;548;48.778;9.252;2022-11-20T20:03:34;7.00;99.90
1123;DHT22;548;48.778;9.252;2022-11-20T20:06:02;7.10;99.90
1123;DHT22;548;48.778;9.252;2022-11-20T20:08:29;7.00;99.90
1123;DHT22;548;48.778;9.252;2022-11-20T20:10:56;7.00;99.90
1123;DHT22;548;48.778;9.252;2022-11-20T20:13:24;7.00;99.90
1123;DHT22;548;48.778;9.252;2022-11-20T20:15:52;7.00;99.90
1123;DHT22;548;48.778;9.252;2022-11-20T20:18:19;7.00;99.90
1123;DHT22;548;48.778;9.252;2022-11-20T20:20:45;7.00;99.90
1123;DHT22;548;48.778;9.252;2022-11-20T20:23:12;7.00;99.90
1123;DHT22;548;48.778;9.252;2022-11-20T20:25:39;7.10;99.90
1123;DHT22;548;48.778;9.252;2022-11-20T20:28:06;7.20;99.90
1123;DHT22;548;48.778;9.252;2022-11-20T20:30:34;7.20;99.90
1123;DHT22;548;48.778;9.252;2022-11-20T20:33:02;7.20;99.90
1123;DHT22;548;48.778;9.252;2022-11-20T20:35:29;7.30;99.90
1123;DHT22;548;48.778;9.252;2022-11-20T20:37:56;7.30;99.90
1123;DHT22;548;48.778;9.252;2022-11-20T20:40:23;7.30;99.90
1123;DHT22;548;48.778;9.252;2022-11-20T20:42:50;7.30;99.90
1123;DHT22;548;48.778;9.252;2022-11-20T20:45:17;7.30;99.90
1123;DHT22;548;48.778;9.252;2022-11-20T20:47:43;7.20;99.90
1123;DHT22;548;48.778;9.252;2022-11-20T20:50:11;7.10;99.90
1123;DHT22;548;48.778;9.252;2022-11-20T20:52:38;7.00;99.90
1123;DHT22;548;48.778;9.252;2022-11-20T20:55:05;7.00;99.90
1123;DHT22;548;48.778;9.252;2022-11-20T20:57:32;7.00;99.90
1123;DHT22;548;48.778;9.252;2022-11-20T20:59:59;7.00;99.90
1123;DHT22;548;48.778;9.252;2022-11-20T21:02:26;6.90;99.90
1123;DHT22;548;48.778;9.252;2022-11-20T21:04:53;6.90;99.90
1123;DHT22;548;48.778;9.252;2022-11-20T21:07:21;6.80;99.90
1123;DHT22;548;48.778;9.252;2022-11-20T21:09:47;6.80;99.90
1123;DHT22;548;48.778;9.252;2022-11-20T21:12:14;6.80;99.90
1123;DHT22;548;48.778;9.252;2022-11-20T21:14:41;6.80;99.90
1123;DHT22;548;48.778;9.252;2022-11-20T21:17:08;6.80;99.90
1123;DHT22;548;48.778;9.252;2022-11-20T21:19:35;6.80;99.90
1123;DHT22;548;48.778;9.252;2022-11-20T21:22:02;6.80;99.90
1123;DHT22;548;48.778;9.252;2022-11-20T21:24:30;6.80;99.90
1123;DHT22;548;48.778;9.252;2022-11-20T21:26:58;6.80;99.90
1123;DHT22;548;48.778;9.252;2022-11-20T21:29:27;6.90;99.90
1123;DHT22;548;48.778;9.252;2022-11-20T21:31:54;6.90;99.90
1123;DHT22;548;48.778;9.252;2022-11-20T21:34:22;6.90;99.90
1123;DHT22;548;48.778;9.252;2022-11-20T21:36:48;6.80;99.90
1123;DHT22;548;48.778;9.252;2022-11-20T21:39:16;6.70;99.90
1123;DHT22;548;48.778;9.252;2022-11-20T21:41:44;6.70;99.90
1123;DHT22;548;48.778;9.252;2022-11-20T21:44:12;6.60;99.90
1123;DHT22;548;48.778;9.252;2022-11-20T21:46:40;6.60;99.90
1123;DHT22;548;48.778;9.252;2022-11-20T21:49:08;6.50;99.90
1123;DHT22;548;48.778;9.252;2022-11-20T21:51:35;6.50;99.90
1123;DHT22;548;48.778;9.252;2022-11-20T21:54:02;6.60;99.90
1123;DHT22;548;48.778;9.252;2022-11-20T21:56:29;6.60;99.90
1123;DHT22;548;48.778;9.252;2022-11-20T21:58:57;6.60;99.90
1123;DHT22;548;48.778;9.252;2022-11-20T22:01:25;6.60;99.90
1123;DHT22;548;48.778;9.252;2022-11-20T22:03:53;6.70;99.90
1123;DHT22;548;48.778;9.252;2022-11-20T22:06:22;6.70;99.90
1123;DHT22;548;48.778;9.252;2022-11-20T22:08:49;6.80;99.90
1123;DHT22;548;48.778;9.252;2022-11-20T22:11:18;6.90;99.90
1123;DHT22;548;48.778;9.252;2022-11-20T22:13:45;6.90;99.90
1123;DHT22;548;48.778;9.252;2022-11-20T22:16:32;6.90;99.90
1123;DHT22;548;48.778;9.252;2022-11-20T22:18:59;6.90;99.90
1123;DHT22;548;48.778;9.252;2022-11-20T22:21:27;6.90;99.90
1123;DHT22;548;48.778;9.252;2022-11-20T22:23:55;7.00;99.90
1123;DHT22;548;48.778;9.252;2022-11-20T22:26:23;7.00;99.90
1123;DHT22;548;48.778;9.252;2022-11-20T22:28:52;7.10;99.90
1123;DHT22;548;48.778;9.252;2022-11-20T22:31:20;7.10;99.90
1123;DHT22;548;48.778;9.252;2022-11-20T22:33:48;7.10;99.90
1123;DHT22;548;48.778;9.252;2022-11-20T22:36:17;7.10;99.90
1123;DHT22;548;48.778;9.252;2022-11-20T22:38:44;7.20;99.90
1123;DHT22;548;48.778;9.252;2022-11-20T22:41:13;7.20;99.90
1123;DHT22;548;48.778;9.252;2022-11-20T22:43:41;7.30;99.90
1123;DHT22;548;48.778;9.252;2022-11-20T22:46:10;7.40;99.90
1123;DHT22;548;48.778;9.252;2022-11-20T22:48:38;7.40;99.90
1123;DHT22;548;48.778;9.252;2022-11-20T22:51:09;7.30;99.90
1123;DHT22;548;48.778;9.252;2022-11-20T22:53:36;7.30;99.90
1123;DHT22;548;48.778;9.252;2022-11-20T22:56:03;7.20;99.90
1123;DHT22;548;48.778;9.252;2022-11-20T22:58:32;7.20;99.90
1123;DHT22;548;48.778;9.252;2022-11-20T23:01:08;7.10;99.90
1123;DHT22;548;48.778;9.252;2022-11-20T23:03:34;7.10;99.90
1123;DHT22;548;48.778;9.252;2022-11-20T23:06:01;6.90;99.90
1123;DHT22;548;48.778;9.252;2022-11-20T23:08:30;6.90;99.90
1123;DHT22;548;48.778;9.252;2022-11-20T23:10:58;6.90;99.90
1123;DHT22;548;48.778;9.252;2022-11-20T23:13:25;6.90;99.90
1123;DHT22;548;48.778;9.252;2022-11-20T23:15:52;7.00;99.90
1123;DHT22;548;48.778;9.252;2022-11-20T23:18:19;7.10;99.90
1123;DHT22;548;48.778;9.252;2022-11-20T23:20:46;7.10;99.90
1123;DHT22;548;48.778;9.252;2022-11-20T23:23:12;7.20;99.90
1123;DHT22;548;48.778;9.252;2022-11-20T23:25:40;7.20;99.90
1123;DHT22;548;48.778;9.252;2022-11-20T23:28:07;7.20;99.90
1123;DHT22;548;48.778;9.252;2022-11-20T23:30:34;7.10;99.90
1123;DHT22;548;48.778;9.252;2022-11-20T23:33:01;7.20;99.90
